sensor_id;sensor_type;location;lat;lon;timestamp;temperature;humidity
44894;DHT22;30625;52.206;21.030;2023-03-01T00:01:29;0.20;99.90
44894;DHT22;30625;52.206;21.030;2023-03-01T00:03:56;0.20;99.90
44894;DHT22;30625;52.206;21.030;2023-03-01T00:06:22;0.40;99.90
44894;DHT22;30625;52.206;21.030;2023-03-01T00:08:48;0.20;99.90
44894;DHT22;30625;52.206;21.030;2023-03-01T00:11:20;0.20;99.90
44894;DHT22;30625;52.206;21.030;2023-03-01T00:13:48;0.10;99.90
44894;DHT22;30625;52.206;21.030;2023-03-01T00:16:21;0.10;99.90
44894;DHT22;30625;52.206;21.030;2023-03-01T00:18:47;0.10;99.90
44894;DHT22;30625;52.206;21.030;2023-03-01T00:21:13;0.10;99.90
44894;DHT22;30625;52.206;21.030;2023-03-01T00:23:39;1.20;99.90
44894;DHT22;30625;52.206;21.030;2023-03-01T00:26:05;0.10;99.90
44894;DHT22;30625;52.206;21.030;2023-03-01T00:28:32;0.20;99.90
44894;DHT22;30625;52.206;21.030;2023-03-01T00:31:05;0.10;99.90
44894;DHT22;30625;52.206;21.030;2023-03-01T00:33:30;0.10;99.90
44894;DHT22;30625;52.206;21.030;2023-03-01T00:35:58;0.00;99.90
44894;DHT22;30625;52.206;21.030;2023-03-01T00:38:24;0.00;99.90
44894;DHT22;30625;52.206;21.030;2023-03-01T00:40:50;0.00;99.90
44894;DHT22;30625;52.206;21.030;2023-03-01T00:43:15;-0.10;99.90
44894;DHT22;30625;52.206;21.030;2023-03-01T00:45:41;0.00;99.90
44894;DHT22;30625;52.206;21.030;2023-03-01T00:48:06;-0.10;99.90
44894;DHT22;30625;52.206;21.030;2023-03-01T00:50:32;-0.10;99.90
44894;DHT22;30625;52.206;21.030;2023-03-01T00:52:58;-0.10;99.90
44894;DHT22;30625;52.206;21.030;2023-03-01T00:55:24;-0.10;99.90
44894;DHT22;30625;52.206;21.030;2023-03-01T00:57:50;0.00;99.90
44894;DHT22;30625;52.206;21.030;2023-03-01T01:00:17;0.00;99.90
44894;DHT22;30625;52.206;21.030;2023-03-01T01:02:42;0.00;99.90
44894;DHT22;30625;52.206;21.030;2023-03-01T01:05:08;0.00;99.90
44894;DHT22;30625;52.206;21.030;2023-03-01T01:07:34;0.00;99.90
44894;DHT22;30625;52.206;21.030;2023-03-01T01:09:59;0.00;99.90
44894;DHT22;30625;52.206;21.030;2023-03-01T01:12:25;0.10;99.90
44894;DHT22;30625;52.206;21.030;2023-03-01T01:14:50;0.00;99.90
44894;DHT22;30625;52.206;21.030;2023-03-01T01:17:16;0.00;99.90
44894;DHT22;30625;52.206;21.030;2023-03-01T01:19:42;0.00;99.90
44894;DHT22;30625;52.206;21.030;2023-03-01T01:22:07;0.00;99.90
44894;DHT22;30625;52.206;21.030;2023-03-01T01:24:33;-0.10;99.90
44894;DHT22;30625;52.206;21.030;2023-03-01T01:26:58;-0.10;99.90
44894;DHT22;30625;52.206;21.030;2023-03-01T01:29:24;-0.10;99.90
44894;DHT22;30625;52.206;21.030;2023-03-01T01:31:50;-0.10;99.90
44894;DHT22;30625;52.206;21.030;2023-03-01T01:34:18;-0.10;99.90
44894;DHT22;30625;52.206;21.030;2023-03-01T01:36:48;-0.10;99.90
44894;DHT22;30625;52.206;21.030;2023-03-01T01:39:14;-0.10;99.90
44894;DHT22;30625;52.206;21.030;2023-03-01T01:41:41;-0.10;99.90
44894;DHT22;30625;52.206;21.030;2023-03-01T01:44:17;-0.10;99.90
44894;DHT22;30625;52.206;21.030;2023-03-01T01:49:46;-0.10;99.90
44894;DHT22;30625;52.206;21.030;2023-03-01T01:52:31;-0.10;99.90
44894;DHT22;30625;52.206;21.030;2023-03-01T01:55:01;-0.10;99.90
44894;DHT22;30625;52.206;21.030;2023-03-01T01:57:33;-0.10;99.90
44894;DHT22;30625;52.206;21.030;2023-03-01T02:00:03;0.10;99.90
44894;DHT22;30625;52.206;21.030;2023-03-01T02:02:29;-0.10;99.90
44894;DHT22;30625;52.206;21.030;2023-03-01T02:05:08;-0.10;99.90
44894;DHT22;30625;52.206;21.030;2023-03-01T02:07:38;-0.10;99.90
44894;DHT22;30625;52.206;21.030;2023-03-01T02:10:04;-0.10;99.90
44894;DHT22;30625;52.206;21.030;2023-03-01T02:12:30;-0.20;99.90
44894;DHT22;30625;52.206;21.030;2023-03-01T02:14:56;-0.20;99.90
44894;DHT22;30625;52.206;21.030;2023-03-01T02:17:22;-0.20;99.90
44894;DHT22;30625;52.206;21.030;2023-03-01T02:22:34;-0.20;99.90
44894;DHT22;30625;52.206;21.030;2023-03-01T02:28:04;-0.20;99.90
44894;DHT22;30625;52.206;21.030;2023-03-01T02:30:31;-0.20;99.90
44894;DHT22;30625;52.206;21.030;2023-03-01T02:32:59;-0.20;99.90
44894;DHT22;30625;52.206;21.030;2023-03-01T02:35:31;-0.20;99.90
44894;DHT22;30625;52.206;21.030;2023-03-01T02:37:59;-0.30;99.90
44894;DHT22;30625;52.206;21.030;2023-03-01T02:40:28;-0.30;99.90
44894;DHT22;30625;52.206;21.030;2023-03-01T02:42:57;-0.30;99.90
44894;DHT22;30625;52.206;21.030;2023-03-01T02:45:24;-0.30;99.90
44894;DHT22;30625;52.206;21.030;2023-03-01T02:47:53;-0.30;99.90
44894;DHT22;30625;52.206;21.030;2023-03-01T02:53:30;-0.30;99.90
44894;DHT22;30625;52.206;21.030;2023-03-01T02:55:57;-0.30;99.90
44894;DHT22;30625;52.206;21.030;2023-03-01T02:58:23;-0.30;99.90
44894;DHT22;30625;52.206;21.030;2023-03-01T03:00:48;-0.30;99.90
44894;DHT22;30625;52.206;21.030;2023-03-01T03:03:16;-0.30;99.90
44894;DHT22;30625;52.206;21.030;2023-03-01T03:05:44;-0.30;99.90
44894;DHT22;30625;52.206;21.030;2023-03-01T03:08:09;-0.30;99.90
44894;DHT22;30625;52.206;21.030;2023-03-01T03:10:39;-0.40;99.90
44894;DHT22;30625;52.206;21.030;2023-03-01T03:13:13;-0.40;99.90
44894;DHT22;30625;52.206;21.030;2023-03-01T03:15:40;-0.40;99.90
44894;DHT22;30625;52.206;21.030;2023-03-01T03:18:09;-0.30;99.90
44894;DHT22;30625;52.206;21.030;2023-03-01T03:20:36;-0.40;99.90
44894;DHT22;30625;52.206;21.030;2023-03-01T03:23:03;-0.40;99.90
44894;DHT22;30625;52.206;21.030;2023-03-01T03:25:29;-0.40;99.90
44894;DHT22;30625;52.206;21.030;2023-03-01T03:27:56;-0.40;99.90
44894;DHT22;30625;52.206;21.030;2023-03-01T03:30:28;-0.40;99.90
44894;DHT22;30625;52.206;21.030;2023-03-01T03:32:54;-0.40;99.90
44894;DHT22;30625;52.206;21.030;2023-03-01T03:35:28;-0.50;99.90
44894;DHT22;30625;52.206;21.030;2023-03-01T03:37:59;-0.50;99.90
44894;DHT22;30625;52.206;21.030;2023-03-01T03:40:39;-0.40;99.90
44894;DHT22;30625;52.206;21.030;2023-03-01T03:43:13;-0.40;99.90
44894;DHT22;30625;52.206;21.030;2023-03-01T03:48:07;-0.40;99.90
44894;DHT22;30625;52.206;21.030;2023-03-01T03:50:33;-0.30;99.90
44894;DHT22;30625;52.206;21.030;2023-03-01T03:53:04;-0.40;99.90
44894;DHT22;30625;52.206;21.030;2023-03-01T03:55:30;-0.40;99.90
44894;DHT22;30625;52.206;21.030;2023-03-01T03:58:01;-0.30;99.90
44894;DHT22;30625;52.206;21.030;2023-03-01T04:00:42;-0.50;99.90
44894;DHT22;30625;52.206;21.030;2023-03-01T04:03:09;-0.40;99.90
44894;DHT22;30625;52.206;21.030;2023-03-01T04:05:36;0.00;99.90
44894;DHT22;30625;52.206;21.030;2023-03-01T04:08:02;-0.40;99.90
44894;DHT22;30625;52.206;21.030;2023-03-01T04:10:29;-0.40;99.90
44894;DHT22;30625;52.206;21.030;2023-03-01T04:12:55;-0.50;99.90
44894;DHT22;30625;52.206;21.030;2023-03-01T04:15:24;-0.40;99.90
44894;DHT22;30625;52.206;21.030;2023-03-01T04:17:52;-0.20;99.90
44894;DHT22;30625;52.206;21.030;2023-03-01T04:20:24;-0.40;99.90
44894;DHT22;30625;52.206;21.030;2023-03-01T04:22:51;-0.40;99.90
44894;DHT22;30625;52.206;21.030;2023-03-01T04:25:17;-0.40;99.90
44894;DHT22;30625;52.206;21.030;2023-03-01T04:30:10;0.40;99.90
44894;DHT22;30625;52.206;21.030;2023-03-01T04:32:35;-0.40;99.90
44894;DHT22;30625;52.206;21.030;2023-03-01T04:35:01;-0.50;99.90
44894;DHT22;30625;52.206;21.030;2023-03-01T04:44:45;-0.40;99.90
44894;DHT22;30625;52.206;21.030;2023-03-01T04:47:12;-0.40;99.90
44894;DHT22;30625;52.206;21.030;2023-03-01T04:52:04;-0.50;99.90
44894;DHT22;30625;52.206;21.030;2023-03-01T04:54:32;-0.50;99.90
44894;DHT22;30625;52.206;21.030;2023-03-01T04:56:58;-0.50;99.90
44894;DHT22;30625;52.206;21.030;2023-03-01T04:59:24;-0.50;99.90
44894;DHT22;30625;52.206;21.030;2023-03-01T05:01:50;-0.50;99.90
44894;DHT22;30625;52.206;21.030;2023-03-01T05:04:16;-0.50;99.90
44894;DHT22;30625;52.206;21.030;2023-03-01T05:06:42;-0.50;99.90
44894;DHT22;30625;52.206;21.030;2023-03-01T05:09:08;-0.50;99.90
44894;DHT22;30625;52.206;21.030;2023-03-01T05:11:34;-0.50;99.90
44894;DHT22;30625;52.206;21.030;2023-03-01T05:14:07;-0.50;99.90
44894;DHT22;30625;52.206;21.030;2023-03-01T05:16:33;0.00;99.90
44894;DHT22;30625;52.206;21.030;2023-03-01T05:21:25;-0.50;99.90
44894;DHT22;30625;52.206;21.030;2023-03-01T05:23:51;-0.50;99.90
44894;DHT22;30625;52.206;21.030;2023-03-01T05:26:18;-0.40;99.90
44894;DHT22;30625;52.206;21.030;2023-03-01T05:28:44;-0.40;99.90
44894;DHT22;30625;52.206;21.030;2023-03-01T05:31:10;-0.50;99.90
44894;DHT22;30625;52.206;21.030;2023-03-01T05:33:40;-0.50;99.90
44894;DHT22;30625;52.206;21.030;2023-03-01T05:36:07;-0.40;99.90
44894;DHT22;30625;52.206;21.030;2023-03-01T05:38:34;-0.40;99.90
44894;DHT22;30625;52.206;21.030;2023-03-01T05:43:30;-0.40;99.90
44894;DHT22;30625;52.206;21.030;2023-03-01T05:45:59;-0.30;99.90
44894;DHT22;30625;52.206;21.030;2023-03-01T05:48:25;-0.50;99.90
44894;DHT22;30625;52.206;21.030;2023-03-01T05:50:51;-0.40;99.90
44894;DHT22;30625;52.206;21.030;2023-03-01T05:53:19;-0.30;99.90
44894;DHT22;30625;52.206;21.030;2023-03-01T05:55:46;-0.30;99.90
44894;DHT22;30625;52.206;21.030;2023-03-01T05:58:18;-0.20;99.90
44894;DHT22;30625;52.206;21.030;2023-03-01T06:00:45;0.30;99.90
44894;DHT22;30625;52.206;21.030;2023-03-01T06:03:13;-0.20;99.90
44894;DHT22;30625;52.206;21.030;2023-03-01T06:05:40;-0.10;99.90
44894;DHT22;30625;52.206;21.030;2023-03-01T06:08:06;0.00;99.90
44894;DHT22;30625;52.206;21.030;2023-03-01T06:10:32;0.00;99.90
44894;DHT22;30625;52.206;21.030;2023-03-01T06:12:58;1.60;99.90
44894;DHT22;30625;52.206;21.030;2023-03-01T06:15:24;0.00;99.90
44894;DHT22;30625;52.206;21.030;2023-03-01T06:17:50;0.00;99.90
44894;DHT22;30625;52.206;21.030;2023-03-01T06:22:44;0.20;99.90
44894;DHT22;30625;52.206;21.030;2023-03-01T06:25:11;1.80;99.90
44894;DHT22;30625;52.206;21.030;2023-03-01T06:27:38;0.30;99.90
44894;DHT22;30625;52.206;21.030;2023-03-01T06:30:04;0.50;99.90
44894;DHT22;30625;52.206;21.030;2023-03-01T06:32:30;0.50;99.90
44894;DHT22;30625;52.206;21.030;2023-03-01T06:34:57;0.60;99.90
44894;DHT22;30625;52.206;21.030;2023-03-01T06:37:24;0.70;99.90
44894;DHT22;30625;52.206;21.030;2023-03-01T06:39:50;0.70;99.90
44894;DHT22;30625;52.206;21.030;2023-03-01T06:42:15;0.80;99.90
44894;DHT22;30625;52.206;21.030;2023-03-01T06:44:41;0.80;99.90
44894;DHT22;30625;52.206;21.030;2023-03-01T06:47:07;0.80;99.90
44894;DHT22;30625;52.206;21.030;2023-03-01T06:49:33;1.10;99.90
44894;DHT22;30625;52.206;21.030;2023-03-01T06:51:58;1.10;99.90
44894;DHT22;30625;52.206;21.030;2023-03-01T06:59:17;1.30;99.90
44894;DHT22;30625;52.206;21.030;2023-03-01T07:01:43;1.40;99.90
44894;DHT22;30625;52.206;21.030;2023-03-01T07:06:35;1.50;99.90
44894;DHT22;30625;52.206;21.030;2023-03-01T07:09:00;1.70;99.90
44894;DHT22;30625;52.206;21.030;2023-03-01T07:11:26;2.00;99.90
44894;DHT22;30625;52.206;21.030;2023-03-01T07:13:52;3.30;99.90
44894;DHT22;30625;52.206;21.030;2023-03-01T07:16:17;2.60;99.90
44894;DHT22;30625;52.206;21.030;2023-03-01T07:18:43;3.30;99.90
44894;DHT22;30625;52.206;21.030;2023-03-01T07:21:12;2.60;99.90
44894;DHT22;30625;52.206;21.030;2023-03-01T07:23:37;2.80;99.90
44894;DHT22;30625;52.206;21.030;2023-03-01T07:26:03;2.90;99.90
44894;DHT22;30625;52.206;21.030;2023-03-01T07:31:01;3.20;97.40
44894;DHT22;30625;52.206;21.030;2023-03-01T07:33:26;3.30;98.00
44894;DHT22;30625;52.206;21.030;2023-03-01T07:35:59;3.40;97.90
44894;DHT22;30625;52.206;21.030;2023-03-01T07:38:26;3.40;96.80
44894;DHT22;30625;52.206;21.030;2023-03-01T07:40:52;4.10;96.80
44894;DHT22;30625;52.206;21.030;2023-03-01T07:43:18;3.60;96.50
44894;DHT22;30625;52.206;21.030;2023-03-01T07:45:45;3.70;96.20
44894;DHT22;30625;52.206;21.030;2023-03-01T07:48:11;3.70;95.90
44894;DHT22;30625;52.206;21.030;2023-03-01T07:50:37;3.80;96.10
44894;DHT22;30625;52.206;21.030;2023-03-01T07:53:02;6.00;96.70
44894;DHT22;30625;52.206;21.030;2023-03-01T07:55:28;4.00;95.80
44894;DHT22;30625;52.206;21.030;2023-03-01T07:57:54;4.50;95.40
44894;DHT22;30625;52.206;21.030;2023-03-01T08:00:19;5.10;95.50
44894;DHT22;30625;52.206;21.030;2023-03-01T08:02:45;5.90;93.70
44894;DHT22;30625;52.206;21.030;2023-03-01T08:05:11;6.80;92.20
44894;DHT22;30625;52.206;21.030;2023-03-01T08:07:36;7.00;90.80
44894;DHT22;30625;52.206;21.030;2023-03-01T08:10:02;7.70;89.60
44894;DHT22;30625;52.206;21.030;2023-03-01T08:12:28;8.40;87.20
44894;DHT22;30625;52.206;21.030;2023-03-01T08:14:54;10.70;86.70
44894;DHT22;30625;52.206;21.030;2023-03-01T08:17:20;9.90;85.50
44894;DHT22;30625;52.206;21.030;2023-03-01T08:19:46;10.20;80.40
44894;DHT22;30625;52.206;21.030;2023-03-01T08:22:11;10.10;79.50
44894;DHT22;30625;52.206;21.030;2023-03-01T08:24:37;10.50;79.30
44894;DHT22;30625;52.206;21.030;2023-03-01T08:27:03;10.10;79.10
44894;DHT22;30625;52.206;21.030;2023-03-01T08:29:30;9.60;79.30
44894;DHT22;30625;52.206;21.030;2023-03-01T08:31:56;9.70;81.80
44894;DHT22;30625;52.206;21.030;2023-03-01T08:34:22;9.00;82.10
44894;DHT22;30625;52.206;21.030;2023-03-01T08:36:48;8.90;82.30
44894;DHT22;30625;52.206;21.030;2023-03-01T08:39:16;8.30;84.90
44894;DHT22;30625;52.206;21.030;2023-03-01T08:41:43;8.20;84.60
44894;DHT22;30625;52.206;21.030;2023-03-01T08:44:10;8.30;84.20
44894;DHT22;30625;52.206;21.030;2023-03-01T08:46:38;8.40;83.60
44894;DHT22;30625;52.206;21.030;2023-03-01T08:49:10;8.30;83.70
44894;DHT22;30625;52.206;21.030;2023-03-01T08:51:36;8.30;84.90
44894;DHT22;30625;52.206;21.030;2023-03-01T08:54:03;8.00;85.40
44894;DHT22;30625;52.206;21.030;2023-03-01T08:56:29;8.20;85.50
44894;DHT22;30625;52.206;21.030;2023-03-01T08:58:58;8.40;85.10
44894;DHT22;30625;52.206;21.030;2023-03-01T09:01:24;8.60;84.00
44894;DHT22;30625;52.206;21.030;2023-03-01T09:03:49;8.80;84.50
44894;DHT22;30625;52.206;21.030;2023-03-01T09:06:15;9.10;84.50
44894;DHT22;30625;52.206;21.030;2023-03-01T09:08:44;9.00;82.00
44894;DHT22;30625;52.206;21.030;2023-03-01T09:11:12;9.50;83.60
44894;DHT22;30625;52.206;21.030;2023-03-01T09:13:38;9.90;82.90
44894;DHT22;30625;52.206;21.030;2023-03-01T09:16:05;9.70;82.20
44894;DHT22;30625;52.206;21.030;2023-03-01T09:18:31;10.20;81.00
44894;DHT22;30625;52.206;21.030;2023-03-01T09:21:05;10.20;81.10
44894;DHT22;30625;52.206;21.030;2023-03-01T09:23:43;10.40;81.50
44894;DHT22;30625;52.206;21.030;2023-03-01T09:26:18;10.80;79.20
44894;DHT22;30625;52.206;21.030;2023-03-01T09:28:45;10.60;78.10
44894;DHT22;30625;52.206;21.030;2023-03-01T09:31:12;10.40;78.30
44894;DHT22;30625;52.206;21.030;2023-03-01T09:33:38;10.30;79.30
44894;DHT22;30625;52.206;21.030;2023-03-01T09:36:07;9.90;80.40
44894;DHT22;30625;52.206;21.030;2023-03-01T09:38:33;9.90;81.00
44894;DHT22;30625;52.206;21.030;2023-03-01T09:41:00;9.80;80.20
44894;DHT22;30625;52.206;21.030;2023-03-01T09:43:41;9.60;80.00
44894;DHT22;30625;52.206;21.030;2023-03-01T09:46:10;9.40;80.60
44894;DHT22;30625;52.206;21.030;2023-03-01T09:48:44;9.60;81.40
44894;DHT22;30625;52.206;21.030;2023-03-01T09:51:37;9.60;81.40
44894;DHT22;30625;52.206;21.030;2023-03-01T09:54:04;9.90;82.00
44894;DHT22;30625;52.206;21.030;2023-03-01T10:09:41;10.90;80.70
44894;DHT22;30625;52.206;21.030;2023-03-01T10:12:26;11.50;78.20
44894;DHT22;30625;52.206;21.030;2023-03-01T10:17:50;12.30;74.40
44894;DHT22;30625;52.206;21.030;2023-03-01T10:20:28;12.30;75.40
44894;DHT22;30625;52.206;21.030;2023-03-01T10:22:55;12.10;74.70
44894;DHT22;30625;52.206;21.030;2023-03-01T10:25:33;11.70;75.80
44894;DHT22;30625;52.206;21.030;2023-03-01T10:31:02;11.40;77.40
44894;DHT22;30625;52.206;21.030;2023-03-01T10:33:33;11.00;77.80
44894;DHT22;30625;52.206;21.030;2023-03-01T10:36:02;11.30;77.80
44894;DHT22;30625;52.206;21.030;2023-03-01T10:38:30;11.30;78.30
44894;DHT22;30625;52.206;21.030;2023-03-01T10:43:24;12.30;75.60
44894;DHT22;30625;52.206;21.030;2023-03-01T10:45:51;12.80;75.30
44894;DHT22;30625;52.206;21.030;2023-03-01T10:48:19;13.30;73.80
44894;DHT22;30625;52.206;21.030;2023-03-01T10:51:04;13.50;72.60
44894;DHT22;30625;52.206;21.030;2023-03-01T10:53:56;14.20;71.00
44894;DHT22;30625;52.206;21.030;2023-03-01T10:56:22;14.30;70.70
44894;DHT22;30625;52.206;21.030;2023-03-01T10:59:00;14.40;71.00
44894;DHT22;30625;52.206;21.030;2023-03-01T11:01:32;14.40;71.30
44894;DHT22;30625;52.206;21.030;2023-03-01T11:06:31;13.70;70.40
44894;DHT22;30625;52.206;21.030;2023-03-01T11:09:19;13.50;71.60
44894;DHT22;30625;52.206;21.030;2023-03-01T11:11:45;12.90;73.40
44894;DHT22;30625;52.206;21.030;2023-03-01T11:14:17;12.30;73.70
44894;DHT22;30625;52.206;21.030;2023-03-01T11:16:45;12.20;75.60
44894;DHT22;30625;52.206;21.030;2023-03-01T11:21:41;12.50;76.10
44894;DHT22;30625;52.206;21.030;2023-03-01T11:24:13;11.20;77.50
44894;DHT22;30625;52.206;21.030;2023-03-01T11:26:42;11.30;78.70
44894;DHT22;30625;52.206;21.030;2023-03-01T11:29:35;10.60;79.80
44894;DHT22;30625;52.206;21.030;2023-03-01T11:32:06;10.40;80.00
44894;DHT22;30625;52.206;21.030;2023-03-01T11:37:09;10.30;80.40
44894;DHT22;30625;52.206;21.030;2023-03-01T11:42:37;10.10;81.30
44894;DHT22;30625;52.206;21.030;2023-03-01T11:45:11;10.00;81.10
44894;DHT22;30625;52.206;21.030;2023-03-01T11:48:12;9.80;82.00
44894;DHT22;30625;52.206;21.030;2023-03-01T11:50:47;9.90;82.70
44894;DHT22;30625;52.206;21.030;2023-03-01T11:53:26;10.00;83.50
44894;DHT22;30625;52.206;21.030;2023-03-01T11:56:03;10.10;83.60
44894;DHT22;30625;52.206;21.030;2023-03-01T11:59:03;10.40;82.10
44894;DHT22;30625;52.206;21.030;2023-03-01T12:02:52;10.40;80.50
44894;DHT22;30625;52.206;21.030;2023-03-01T12:07:53;10.00;83.10
44894;DHT22;30625;52.206;21.030;2023-03-01T12:13:19;9.80;82.90
44894;DHT22;30625;52.206;21.030;2023-03-01T12:16:00;9.90;84.00
44894;DHT22;30625;52.206;21.030;2023-03-01T12:18:55;9.90;84.80
44894;DHT22;30625;52.206;21.030;2023-03-01T12:27:29;9.80;83.90
44894;DHT22;30625;52.206;21.030;2023-03-01T12:33:21;9.70;84.40
44894;DHT22;30625;52.206;21.030;2023-03-01T12:38:33;9.60;85.50
44894;DHT22;30625;52.206;21.030;2023-03-01T12:41:11;9.30;87.60
44894;DHT22;30625;52.206;21.030;2023-03-01T12:44:11;9.30;88.20
44894;DHT22;30625;52.206;21.030;2023-03-01T12:49:55;9.30;88.50
44894;DHT22;30625;52.206;21.030;2023-03-01T12:55:42;9.30;88.60
44894;DHT22;30625;52.206;21.030;2023-03-01T13:00:49;9.20;87.90
44894;DHT22;30625;52.206;21.030;2023-03-01T13:06:12;9.20;88.80
44894;DHT22;30625;52.206;21.030;2023-03-01T13:09:27;9.30;89.90
44894;DHT22;30625;52.206;21.030;2023-03-01T13:11:33;9.30;88.50
44894;DHT22;30625;52.206;21.030;2023-03-01T13:16:50;9.50;89.20
44894;DHT22;30625;52.206;21.030;2023-03-01T13:19:18;9.50;89.50
44894;DHT22;30625;52.206;21.030;2023-03-01T13:21:46;9.70;89.20
44894;DHT22;30625;52.206;21.030;2023-03-01T13:24:31;9.70;90.00
44894;DHT22;30625;52.206;21.030;2023-03-01T13:27:30;9.80;89.40
44894;DHT22;30625;52.206;21.030;2023-03-01T13:29:59;10.00;89.60
44894;DHT22;30625;52.206;21.030;2023-03-01T13:32:33;10.00;88.90
44894;DHT22;30625;52.206;21.030;2023-03-01T13:35:40;11.00;89.70
44894;DHT22;30625;52.206;21.030;2023-03-01T13:37:49;9.90;89.80
44894;DHT22;30625;52.206;21.030;2023-03-01T13:42:47;9.80;90.00
44894;DHT22;30625;52.206;21.030;2023-03-01T13:47:43;9.90;90.40
44894;DHT22;30625;52.206;21.030;2023-03-01T13:50:21;10.30;89.40
44894;DHT22;30625;52.206;21.030;2023-03-01T13:52:52;9.90;89.70
44894;DHT22;30625;52.206;21.030;2023-03-01T13:55:22;9.90;90.40
44894;DHT22;30625;52.206;21.030;2023-03-01T13:57:53;9.70;90.30
44894;DHT22;30625;52.206;21.030;2023-03-01T14:00:39;9.70;90.50
44894;DHT22;30625;52.206;21.030;2023-03-01T14:03:17;9.70;90.30
44894;DHT22;30625;52.206;21.030;2023-03-01T14:08:25;9.70;90.60
44894;DHT22;30625;52.206;21.030;2023-03-01T14:14:28;9.60;91.10
44894;DHT22;30625;52.206;21.030;2023-03-01T14:19:37;9.50;91.30
44894;DHT22;30625;52.206;21.030;2023-03-01T14:24:40;9.40;91.60
44894;DHT22;30625;52.206;21.030;2023-03-01T14:27:11;9.20;91.40
44894;DHT22;30625;52.206;21.030;2023-03-01T14:29:39;10.00;92.20
44894;DHT22;30625;52.206;21.030;2023-03-01T14:32:20;9.20;91.50
44894;DHT22;30625;52.206;21.030;2023-03-01T14:34:50;9.10;91.80
44894;DHT22;30625;52.206;21.030;2023-03-01T14:39:51;9.00;91.90
44894;DHT22;30625;52.206;21.030;2023-03-01T14:42:19;8.90;92.30
44894;DHT22;30625;52.206;21.030;2023-03-01T14:44:48;9.60;92.50
44894;DHT22;30625;52.206;21.030;2023-03-01T14:47:20;8.80;92.60
44894;DHT22;30625;52.206;21.030;2023-03-01T14:49:53;8.60;92.70
44894;DHT22;30625;52.206;21.030;2023-03-01T14:52:22;8.50;92.90
44894;DHT22;30625;52.206;21.030;2023-03-01T14:54:54;8.40;93.20
44894;DHT22;30625;52.206;21.030;2023-03-01T14:57:22;8.30;93.30
44894;DHT22;30625;52.206;21.030;2023-03-01T14:59:53;7.30;92.80
44894;DHT22;30625;52.206;21.030;2023-03-01T15:02:22;8.20;93.30
44894;DHT22;30625;52.206;21.030;2023-03-01T15:04:54;8.20;93.50
44894;DHT22;30625;52.206;21.030;2023-03-01T15:07:24;8.30;93.70
44894;DHT22;30625;52.206;21.030;2023-03-01T15:09:52;8.10;94.00
44894;DHT22;30625;52.206;21.030;2023-03-01T15:14:53;8.60;94.50
44894;DHT22;30625;52.206;21.030;2023-03-01T15:17:38;7.90;94.20
44894;DHT22;30625;52.206;21.030;2023-03-01T15:20:15;7.90;94.10
44894;DHT22;30625;52.206;21.030;2023-03-01T15:22:44;7.90;94.50
44894;DHT22;30625;52.206;21.030;2023-03-01T15:25:18;7.90;94.40
44894;DHT22;30625;52.206;21.030;2023-03-01T15:27:49;7.80;94.50
44894;DHT22;30625;52.206;21.030;2023-03-01T15:30:22;7.70;95.00
44894;DHT22;30625;52.206;21.030;2023-03-01T15:35:48;7.70;95.10
44894;DHT22;30625;52.206;21.030;2023-03-01T15:38:58;7.60;95.30
44894;DHT22;30625;52.206;21.030;2023-03-01T15:41:25;7.50;95.50
44894;DHT22;30625;52.206;21.030;2023-03-01T15:43:51;7.50;95.50
44894;DHT22;30625;52.206;21.030;2023-03-01T15:46:32;7.50;95.50
44894;DHT22;30625;52.206;21.030;2023-03-01T15:49:02;7.50;95.50
44894;DHT22;30625;52.206;21.030;2023-03-01T15:51:35;7.50;95.70
44894;DHT22;30625;52.206;21.030;2023-03-01T15:54:17;7.40;95.50
44894;DHT22;30625;52.206;21.030;2023-03-01T15:56:43;7.30;95.40
44894;DHT22;30625;52.206;21.030;2023-03-01T15:59:11;7.30;95.70
44894;DHT22;30625;52.206;21.030;2023-03-01T16:01:41;7.20;95.20
44894;DHT22;30625;52.206;21.030;2023-03-01T16:04:08;7.10;95.30
44894;DHT22;30625;52.206;21.030;2023-03-01T16:06:33;7.20;95.50
44894;DHT22;30625;52.206;21.030;2023-03-01T16:09:01;7.10;95.70
44894;DHT22;30625;52.206;21.030;2023-03-01T16:11:27;7.10;95.70
44894;DHT22;30625;52.206;21.030;2023-03-01T16:13:53;7.00;95.70
44894;DHT22;30625;52.206;21.030;2023-03-01T16:16:19;6.90;95.90
44894;DHT22;30625;52.206;21.030;2023-03-01T16:18:46;7.90;96.50
44894;DHT22;30625;52.206;21.030;2023-03-01T16:21:14;6.90;96.40
44894;DHT22;30625;52.206;21.030;2023-03-01T16:23:42;6.80;96.20
44894;DHT22;30625;52.206;21.030;2023-03-01T16:26:08;6.80;96.30
44894;DHT22;30625;52.206;21.030;2023-03-01T16:28:33;5.90;95.90
44894;DHT22;30625;52.206;21.030;2023-03-01T16:30:59;6.70;96.20
44894;DHT22;30625;52.206;21.030;2023-03-01T16:33:26;6.70;96.20
44894;DHT22;30625;52.206;21.030;2023-03-01T16:35:52;6.60;96.40
44894;DHT22;30625;52.206;21.030;2023-03-01T16:38:18;6.60;96.70
44894;DHT22;30625;52.206;21.030;2023-03-01T16:40:47;6.50;96.70
44894;DHT22;30625;52.206;21.030;2023-03-01T16:43:14;6.50;96.80
44894;DHT22;30625;52.206;21.030;2023-03-01T16:45:39;6.50;97.10
44894;DHT22;30625;52.206;21.030;2023-03-01T16:48:06;6.40;97.10
44894;DHT22;30625;52.206;21.030;2023-03-01T16:50:33;6.40;97.10
44894;DHT22;30625;52.206;21.030;2023-03-01T16:52:58;6.50;97.20
44894;DHT22;30625;52.206;21.030;2023-03-01T16:55:24;6.30;97.50
44894;DHT22;30625;52.206;21.030;2023-03-01T16:57:49;7.10;97.60
44894;DHT22;30625;52.206;21.030;2023-03-01T17:00:16;6.20;97.70
44894;DHT22;30625;52.206;21.030;2023-03-01T17:02:43;6.20;97.80
44894;DHT22;30625;52.206;21.030;2023-03-01T17:05:09;6.10;98.00
44894;DHT22;30625;52.206;21.030;2023-03-01T17:07:37;6.10;97.90
44894;DHT22;30625;52.206;21.030;2023-03-01T17:10:05;6.00;98.30
44894;DHT22;30625;52.206;21.030;2023-03-01T17:12:31;6.00;98.30
44894;DHT22;30625;52.206;21.030;2023-03-01T17:14:58;6.00;98.30
44894;DHT22;30625;52.206;21.030;2023-03-01T17:17:23;6.00;98.60
44894;DHT22;30625;52.206;21.030;2023-03-01T17:19:49;5.90;98.70
44894;DHT22;30625;52.206;21.030;2023-03-01T17:22:15;5.50;98.80
44894;DHT22;30625;52.206;21.030;2023-03-01T17:24:43;7.00;99.20
44894;DHT22;30625;52.206;21.030;2023-03-01T17:27:10;6.80;99.40
44894;DHT22;30625;52.206;21.030;2023-03-01T17:29:37;5.70;99.30
44894;DHT22;30625;52.206;21.030;2023-03-01T17:32:03;6.30;99.60
44894;DHT22;30625;52.206;21.030;2023-03-01T17:34:31;5.70;99.60
44894;DHT22;30625;52.206;21.030;2023-03-01T17:36:57;5.60;99.70
44894;DHT22;30625;52.206;21.030;2023-03-01T17:39:23;5.60;99.90
44894;DHT22;30625;52.206;21.030;2023-03-01T17:47:03;5.60;99.90
44894;DHT22;30625;52.206;21.030;2023-03-01T17:49:29;5.50;99.90
44894;DHT22;30625;52.206;21.030;2023-03-01T17:51:55;4.80;99.90
44894;DHT22;30625;52.206;21.030;2023-03-01T17:54:21;6.80;99.90
44894;DHT22;30625;52.206;21.030;2023-03-01T17:56:47;5.40;99.90